Terminal Aerodrome Forecast
Issued by NWS

Home | Current Version | Previous Version | Text Only | Print | Product List | Glossary On
Versions: 1 2 3 4 5 6 7 8 9 10 11 12
663
FTUS42 KGSP 232327
TAFGMU
TAF
KGMU 232327Z 2400/2424 05012G22KT 4SM +SHRA BR OVC008
     FM240300 04013G22KT 3SM BR OVC007
      TEMPO 2403/2406 2SM +SHRA BR OVC004
     FM240600 04011G18KT 3SM SHRA BR OVC003
     FM241600 04011G18KT 4SM -SHRA BR OVC005
     FM241900 03012G20KT 5SM -SHRA BR OVC008=

USA.gov is the U.S. government's official web portal to all federal, state and local government web resources and services.